Time;durP1;ratioP1;P1;durP2;ratioP2;P2;SDS_P1;SDS_P2;PMS_P1;PMS_P2;Temp;Humidity;BMP_temperature;BMP_pressure;BME280_temperature;BME280_humidity;BME280_pressure;Samples;Min_cycle;Max_cycle;Signal;HPM_P1;HPM_P2
2022/11/03 00:03:17;;;;;;;14.47;6.30;;;9.20;97.40;;;;;;20921851;28;20251;-71
2022/11/03 00:13:19;;;;;;;14.30;6.13;;;9.10;97.70;;;;;;20921164;28;20818;-70
2022/11/03 00:23:20;;;;;;;14.00;6.63;;;9.00;97.50;;;;;;20919879;28;20285;-70
2022/11/03 00:33:25;;;;;;;15.10;5.30;;;9.00;97.50;;;;;;20918714;28;20277;-70
2022/11/03 00:43:29;;;;;;;9.13;5.23;;;8.90;97.40;;;;;;20917192;28;20235;-72
2022/11/03 00:53:32;;;;;;;14.13;6.63;;;8.90;97.50;;;;;;20917323;28;20208;-71
2022/11/03 01:03:36;;;;;;;15.27;6.50;;;8.80;97.70;;;;;;20915962;28;20285;-71
2022/11/03 01:13:38;;;;;;;16.30;6.27;;;8.70;97.60;;;;;;20915493;28;20658;-71
2022/11/03 01:23:40;;;;;;;21.63;6.10;;;8.70;97.70;;;;;;20856802;28;20232;-71
2022/11/03 01:33:44;;;;;;;10.40;5.27;;;8.50;97.50;;;;;;20830498;28;20258;-71
2022/11/03 01:44:11;;;;;;;12.80;6.10;;;8.50;97.90;;;;;;20831098;28;20239;-71
2022/11/03 01:54:17;;;;;;;14.17;5.47;;;8.40;97.80;;;;;;20826687;28;20618;-70
2022/11/03 02:04:40;;;;;;;12.00;5.07;;;8.40;97.70;;;;;;20829918;28;20233;-71
2022/11/03 02:14:52;;;;;;;14.03;5.00;;;8.50;97.80;;;;;;20829444;28;20228;-71
2022/11/03 02:25:05;;;;;;;8.17;4.70;;;8.30;97.70;;;;;;20829616;28;20268;-71
2022/11/03 02:35:32;;;;;;;11.10;4.53;;;8.30;97.70;;;;;;20828738;28;20235;-71
2022/11/03 02:45:34;;;;;;;8.03;4.83;;;8.20;97.30;;;;;;20829409;28;20689;-71
2022/11/03 02:55:50;;;;;;;9.73;4.40;;;7.90;97.20;;;;;;20828990;28;20248;-72
2022/11/03 03:05:56;;;;;;;14.50;4.77;;;8.00;97.50;;;;;;20837165;28;20309;-72
2022/11/03 03:16:14;;;;;;;14.20;5.67;;;7.80;97.60;;;;;;20842406;28;20236;-71
2022/11/03 03:26:41;;;;;;;13.00;4.60;;;7.60;97.60;;;;;;20840386;28;20274;-72
2022/11/03 03:36:46;;;;;;;11.17;4.83;;;7.70;97.60;;;;;;20840105;28;20243;-72
2022/11/03 03:46:54;;;;;;;9.27;5.90;;;7.70;97.50;;;;;;20839822;28;20216;-71
2022/11/03 03:57:02;;;;;;;13.03;6.27;;;7.70;97.90;;;;;;20839176;28;20236;-70
2022/11/03 04:27:45;;;;;;;14.27;7.40;;;7.70;98.10;;;;;;20836837;28;20213;-71
2022/11/03 04:38:19;;;;;;;25.17;8.10;;;7.60;98.30;;;;;;20836226;28;20230;-71
2022/11/03 04:48:21;;;;;;;28.07;7.63;;;7.70;98.80;;;;;;20835127;28;20218;-71
2022/11/03 04:58:30;;;;;;;22.30;7.00;;;7.70;98.90;;;;;;20834224;28;20235;-71
2022/11/03 05:08:32;;;;;;;24.53;7.43;;;7.70;98.90;;;;;;20833691;28;20280;-71
2022/11/03 05:18:37;;;;;;;24.37;7.30;;;7.60;99.00;;;;;;20831300;28;20241;-71
2022/11/03 05:28:43;;;;;;;26.17;7.70;;;7.60;98.90;;;;;;20830727;28;20255;-71
2022/11/03 05:38:45;;;;;;;17.47;7.57;;;7.50;99.20;;;;;;20850216;28;20619;-71
2022/11/03 05:48:48;;;;;;;40.90;8.20;;;7.60;99.30;;;;;;20912930;28;20213;-71
2022/11/03 05:58:54;;;;;;;50.07;7.27;;;7.50;99.10;;;;;;20880287;28;20308;-71
2022/11/03 06:08:56;;;;;;;18.07;7.93;;;7.40;99.10;;;;;;20905408;28;20295;-71
2022/11/03 06:19:00;;;;;;;17.77;8.00;;;7.40;99.10;;;;;;20853383;28;20231;-73
2022/11/03 06:29:02;;;;;;;16.23;7.87;;;7.40;99.10;;;;;;20828337;28;20613;-71
2022/11/03 06:39:15;;;;;;;40.37;8.20;;;7.40;99.30;;;;;;20835317;28;20296;-71
2022/11/03 06:49:27;;;;;;;19.40;7.23;;;7.40;98.90;;;;;;20905265;28;20666;-69
2022/11/03 06:59:29;;;;;;;10.90;6.73;;;7.60;99.20;;;;;;20924141;28;20594;-70
2022/11/03 07:09:31;;;;;;;17.07;8.07;;;7.60;99.50;;;;;;20924484;28;20714;-70
2022/11/03 07:19:34;;;;;;;16.90;8.07;;;7.70;99.20;;;;;;20921860;28;20238;-69
2022/11/03 07:29:35;;;;;;;36.87;10.57;;;7.70;99.60;;;;;;20922768;28;20212;-69
2022/11/03 07:39:37;;;;;;;52.43;10.07;;;7.60;99.20;;;;;;20922113;28;20698;-69
2022/11/03 07:49:40;;;;;;;66.40;11.67;;;7.50;99.70;;;;;;20920628;28;20538;-70
2022/11/03 07:59:45;;;;;;;44.73;14.40;;;7.50;99.70;;;;;;20918519;28;20237;-69
2022/11/03 08:09:47;;;;;;;29.70;13.47;;;7.60;99.90;;;;;;20919950;28;20647;-70
2022/11/03 08:19:49;;;;;;;32.17;11.93;;;7.60;99.90;;;;;;20918928;28;20234;-69
2022/11/03 08:29:50;;;;;;;23.80;10.93;;;7.80;99.90;;;;;;20918233;28;20611;-69
2022/11/03 08:39:52;;;;;;;27.97;12.50;;;7.90;99.90;;;;;;20917428;28;20296;-69
2022/11/03 08:49:53;;;;;;;35.03;16.37;;;8.00;99.90;;;;;;20854010;28;20660;-70
2022/11/03 08:59:55;;;;;;;30.57;11.90;;;8.10;99.90;;;;;;20830395;28;20240;-69
2022/11/03 09:09:57;;;;;;;26.13;10.03;;;8.20;99.90;;;;;;20832694;28;20241;-70
2022/11/03 09:20:19;;;;;;;17.57;9.30;;;8.40;99.90;;;;;;20832072;28;20703;-69
2022/11/03 09:30:21;;;;;;;18.93;10.90;;;8.50;99.90;;;;;;20831065;28;20211;-70
2022/11/03 09:40:24;;;;;;;27.53;15.37;;;8.70;99.90;;;;;;20830422;28;20239;-70
2022/11/03 09:50:26;;;;;;;20.07;11.77;;;9.00;99.90;;;;;;20830533;28;20254;-70
2022/11/03 10:00:28;;;;;;;18.90;9.63;;;9.00;99.90;;;;;;20829516;28;20764;-70
2022/11/03 10:10:30;;;;;;;18.90;9.30;;;9.30;99.90;;;;;;20833616;28;20675;-70
2022/11/03 10:20:32;;;;;;;18.10;8.57;;;9.30;99.90;;;;;;20856181;28;20590;-70
2022/11/03 10:30:53;;;;;;;15.60;9.13;;;9.70;99.90;;;;;;20855369;28;20202;-70
2022/11/03 10:41:20;;;;;;;17.33;10.40;;;10.20;99.90;;;;;;20855375;28;20250;-70
2022/11/03 10:51:22;;;;;;;21.40;9.87;;;10.40;99.90;;;;;;20854112;28;20611;-70
2022/11/03 11:01:24;;;;;;;18.27;8.90;;;10.60;99.90;;;;;;20852948;28;20236;-70
2022/11/03 11:11:27;;;;;;;15.50;8.83;;;10.80;99.90;;;;;;20853794;28;20238;-70
2022/11/03 11:21:29;;;;;;;17.80;9.10;;;10.90;99.90;;;;;;20851411;28;20232;-70
2022/11/03 11:31:43;;;;;;;22.60;9.33;;;11.20;99.90;;;;;;20840293;28;20614;-70
2022/11/03 11:42:17;;;;;;;21.23;9.40;;;11.40;99.90;;;;;;20839154;28;20638;-70
2022/11/03 11:52:19;;;;;;;15.80;8.77;;;11.80;99.90;;;;;;20837977;28;20201;-70
2022/11/03 12:02:23;;;;;;;15.30;8.40;;;12.20;99.90;;;;;;20837823;28;20263;-70
2022/11/03 12:12:34;;;;;;;15.57;9.70;;;12.50;99.90;;;;;;20836925;28;20209;-70
2022/11/03 12:22:40;;;;;;;20.33;9.00;;;12.60;99.90;;;;;;20835617;28;20296;-70
2022/11/03 12:32:42;;;;;;;25.20;9.27;;;12.80;99.90;;;;;;20834348;28;20204;-70
2022/11/03 12:42:44;;;;;;;28.77;9.97;;;13.00;99.90;;;;;;20834556;28;20245;-70
2022/11/03 12:52:46;;;;;;;23.17;10.43;;;13.20;99.90;;;;;;20832784;28;20208;-70
2022/11/03 13:02:47;;;;;;;45.50;11.03;;;13.20;99.80;;;;;;20831658;28;20802;-70
2022/11/03 13:12:49;;;;;;;43.77;10.80;;;13.30;99.90;;;;;;20831958;28;20296;-70
2022/11/03 13:22:51;;;;;;;81.13;31.90;;;13.40;99.90;;;;;;20831631;28;20234;-70
2022/11/03 13:32:53;;;;;;;38.87;16.97;;;13.40;99.90;;;;;;20830685;28;20661;-70
2022/11/03 13:42:55;;;;;;;32.97;15.57;;;13.50;99.90;;;;;;20830480;28;20228;-70
2022/11/03 13:52:56;;;;;;;14.40;9.43;;;13.50;99.90;;;;;;20829929;28;20650;-70
2022/11/03 14:03:18;;;;;;;12.40;7.70;;;13.60;99.90;;;;;;20877736;28;20244;-72
2022/11/03 14:13:40;;;;;;;10.07;6.33;;;13.70;99.90;;;;;;20910291;28;20208;-68
2022/11/03 14:23:41;;;;;;;10.93;6.50;;;13.80;99.90;;;;;;20910819;28;20289;-67
2022/11/03 14:33:43;;;;;;;10.63;7.47;;;13.80;99.90;;;;;;20909886;28;20205;-67
2022/11/03 14:43:45;;;;;;;12.70;7.27;;;13.80;99.90;;;;;;20907825;28;20303;-70
2022/11/03 14:53:47;;;;;;;14.03;6.80;;;13.90;99.90;;;;;;20908664;28;20200;-71
2022/11/03 15:03:48;;;;;;;9.87;6.13;;;13.80;99.90;;;;;;20921663;28;20341;-71
2022/11/03 15:13:50;;;;;;;14.03;6.27;;;13.80;99.90;;;;;;20921405;28;20208;-65
2022/11/03 15:23:53;;;;;;;10.10;5.90;;;13.80;99.90;;;;;;20922442;28;20266;-69
2022/11/03 15:34:15;;;;;;;11.20;5.80;;;13.80;99.80;;;;;;20922363;28;20207;-66
2022/11/03 15:44:17;;;;;;;10.27;6.17;;;13.80;99.90;;;;;;20910709;28;20517;-65
2022/11/03 15:54:18;;;;;;;10.87;6.63;;;13.60;99.50;;;;;;20954083;28;20207;-68
2022/11/03 16:04:20;;;;;;;10.60;6.27;;;13.60;99.80;;;;;;20977940;28;20243;-65
2022/11/03 16:14:22;;;;;;;9.27;6.73;;;13.60;99.70;;;;;;20918530;28;20732;-64
2022/11/03 16:24:24;;;;;;;11.37;6.73;;;13.50;99.50;;;;;;20968834;28;20304;-63
2022/11/03 16:34:35;;;;;;;9.37;6.77;;;13.40;99.70;;;;;;21001118;28;20660;-65
2022/11/03 16:44:37;;;;;;;10.77;7.53;;;13.40;99.70;;;;;;21000916;28;20286;-64
2022/11/03 16:54:39;;;;;;;12.40;7.00;;;13.40;99.60;;;;;;20981478;28;20249;-74
2022/11/03 17:04:40;;;;;;;9.97;7.00;;;13.30;99.50;;;;;;20916396;28;20708;-71
2022/11/03 17:14:42;;;;;;;12.80;8.20;;;13.20;99.40;;;;;;20909243;28;20254;-67
2022/11/03 17:24:44;;;;;;;12.30;7.70;;;13.20;99.40;;;;;;20878897;28;20297;-69
2022/11/03 17:34:45;;;;;;;9.53;7.33;;;13.10;99.40;;;;;;20889616;28;20608;-69
2022/11/03 17:44:49;;;;;;;13.47;8.80;;;13.00;99.20;;;;;;20830877;28;20305;-69
2022/11/03 17:54:51;;;;;;;10.53;8.60;;;13.00;99.20;;;;;;20868888;28;20204;-70
2022/11/03 18:05:21;;;;;;;14.17;8.50;;;13.00;99.50;;;;;;20995458;28;20241;-70
2022/11/03 18:15:24;;;;;;;13.23;9.27;;;13.00;99.50;;;;;;20936047;28;20553;-71
2022/11/03 18:25:26;;;;;;;12.03;8.60;;;12.90;99.20;;;;;;20909403;28;20236;-74
2022/11/03 18:35:31;;;;;;;13.30;8.67;;;12.90;99.50;;;;;;20918945;28;20261;-67
2022/11/03 18:45:33;;;;;;;12.90;8.73;;;12.80;99.50;;;;;;20926033;28;20290;-65
2022/11/03 18:55:35;;;;;;;14.07;9.20;;;12.70;99.10;;;;;;20886458;28;20567;-69
2022/11/03 19:05:37;;;;;;;11.77;8.50;;;12.80;99.40;;;;;;20910728;28;20622;-71
2022/11/03 19:15:39;;;;;;;10.87;7.63;;;12.80;99.30;;;;;;20910969;28;20216;-69
2022/11/03 19:25:42;;;;;;;9.60;7.20;;;12.80;99.10;;;;;;20923892;28;20286;-71
2022/11/03 19:35:44;;;;;;;13.10;8.00;;;12.70;98.60;;;;;;20924167;28;20652;-65
2022/11/03 19:45:46;;;;;;;10.50;8.23;;;12.70;99.10;;;;;;20876721;28;20558;-70
2022/11/03 19:55:48;;;;;;;13.10;7.97;;;12.70;98.70;;;;;;20838466;28;20210;-67
2022/11/03 20:05:52;;;;;;;11.67;7.80;;;12.70;98.50;;;;;;20838259;28;20232;-69
2022/11/03 20:15:55;;;;;;;11.57;8.33;;;12.70;98.60;;;;;;20838105;28;20541;-67
2022/11/03 20:26:02;;;;;;;16.67;11.37;;;12.70;98.70;;;;;;20906311;28;20221;-68
2022/11/03 20:36:04;;;;;;;11.10;8.10;;;12.70;98.70;;;;;;20978243;28;20321;-69
2022/11/03 20:46:19;;;;;;;12.37;8.67;;;12.70;98.90;;;;;;20928081;28;20212;-69
2022/11/03 20:56:26;;;;;;;11.57;8.23;;;12.60;98.90;;;;;;20932334;28;20268;-69
2022/11/03 21:06:31;;;;;;;11.43;8.27;;;12.60;99.20;;;;;;20999392;28;20637;-68
2022/11/03 21:26:53;;;;;;;12.33;8.70;;;12.50;99.50;;;;;;20997785;28;20239;-68
2022/11/03 21:36:55;;;;;;;12.93;8.47;;;12.40;99.60;;;;;;20997298;28;20236;-69
2022/11/03 21:46:56;;;;;;;13.63;9.20;;;12.30;99.60;;;;;;20941633;28;20204;-69
2022/11/03 21:56:58;;;;;;;15.87;9.87;;;12.40;99.90;;;;;;20912938;28;20234;-69
2022/11/03 22:07:00;;;;;;;14.07;9.63;;;12.40;99.90;;;;;;20902085;28;20240;-69
2022/11/03 22:17:01;;;;;;;12.00;8.90;;;12.40;99.90;;;;;;20911010;28;20239;-69
2022/11/03 22:27:03;;;;;;;13.83;9.00;;;12.40;99.90;;;;;;20912096;28;20690;-69
2022/11/03 22:37:05;;;;;;;13.03;8.17;;;12.40;99.90;;;;;;20905441;28;20239;-69
2022/11/03 22:47:06;;;;;;;12.33;8.07;;;12.40;99.90;;;;;;20908140;28;20257;-68
2022/11/03 22:57:10;;;;;;;17.63;8.70;;;12.50;99.90;;;;;;20910676;28;20598;-69
2022/11/03 23:07:12;;;;;;;15.33;8.07;;;12.40;99.90;;;;;;20910141;28;20289;-69
2022/11/03 23:17:13;;;;;;;11.63;7.63;;;12.40;99.90;;;;;;20898441;28;20228;-66
2022/11/03 23:27:15;;;;;;;14.47;7.80;;;12.40;99.90;;;;;;20920841;28;20618;-70
2022/11/03 23:37:17;;;;;;;10.87;5.47;;;12.50;99.90;;;;;;20924492;28;20259;-70
